Gully, Minnesota
Current Conditions -  °F | °C
As of 4:15 PM on Friday 24 Oct 2014 (Local Time) from KFSE Reporting Station
Clear Clear  
Wind Chill: 72°   Ceiling: Unl
Heat Index: 72°   Visibility: 10mi
Dew Point: 43°   Wind: 16mph
Humidity: 35%   Direction: 220°SW
Pressure: 29.75"   Gusts: NA
Location:  47.77°N, 95.62°W
Report Text: KFSE 242115Z AUTO 22014KT 10SM CLR 22/06 A2975 RMK AO2
Loading
Personal Weather Stations






























Interactive Weather Map
Tropical Storm Tracking
New forecast layout! Learn more

10-Day Weather Forecast

Advertisements
Track Severe Weather on mobile